createdAt,value
2022-11-16T00:01:47.450Z,3.43
2022-11-16T00:04:14.728Z,4.47
2022-11-16T00:06:41.850Z,3.03
2022-11-16T00:09:23.491Z,2.83
2022-11-16T00:12:12.627Z,3.23
2022-11-16T00:14:39.952Z,3.30
2022-11-16T00:17:06.905Z,3.60
2022-11-16T00:19:33.876Z,2.63
2022-11-16T00:22:01.017Z,2.37
2022-11-16T00:24:28.006Z,2.77
2022-11-16T00:26:56.339Z,1.77
2022-11-16T00:29:25.955Z,1.90
2022-11-16T00:31:54.323Z,2.50
2022-11-16T00:34:22.649Z,1.90
2022-11-16T00:36:50.529Z,2.33
2022-11-16T00:39:19.977Z,2.60
2022-11-16T00:41:48.262Z,2.00
2022-11-16T00:44:16.084Z,1.50
2022-11-16T00:46:43.328Z,2.13
2022-11-16T00:49:11.070Z,1.77
2022-11-16T00:51:40.354Z,1.87
2022-11-16T00:54:09.457Z,1.77
2022-11-16T00:56:38.088Z,1.43
2022-11-16T00:59:06.698Z,1.50
2022-11-16T01:01:34.239Z,2.07
2022-11-16T01:04:01.520Z,1.80
2022-11-16T01:06:28.556Z,2.20
2022-11-16T01:08:55.535Z,2.03
2022-11-16T01:11:42.807Z,1.47
2022-11-16T01:14:10.477Z,1.60
2022-11-16T01:16:37.827Z,1.90
2022-11-16T01:19:05.384Z,1.80
2022-11-16T01:21:33.134Z,1.83
2022-11-16T01:24:00.739Z,1.87
2022-11-16T01:26:28.214Z,1.60
2022-11-16T01:28:55.726Z,1.70
2022-11-16T01:31:23.062Z,1.30
2022-11-16T01:33:51.847Z,1.80
2022-11-16T01:36:27.758Z,2.07
2022-11-16T01:38:57.339Z,1.77
2022-11-16T01:41:28.319Z,1.87
2022-11-16T01:44:01.364Z,1.80
2022-11-16T01:46:37.243Z,1.97
2022-11-16T01:49:12.104Z,1.40
2022-11-16T01:51:42.558Z,1.50
2022-11-16T01:54:13.437Z,1.70
2022-11-16T01:56:52.480Z,2.33
2022-11-16T01:59:34.591Z,2.33
2022-11-16T02:02:02.786Z,2.20
2022-11-16T02:04:30.668Z,1.70
2022-11-16T02:08:04.271Z,1.63
2022-11-16T02:11:33.675Z,2.07
2022-11-16T02:14:42.509Z,1.63
2022-11-16T02:17:48.440Z,2.17
2022-11-16T02:20:44.869Z,2.13
2022-11-16T02:23:33.841Z,1.87
2022-11-16T02:26:25.780Z,1.40
2022-11-16T02:29:24.629Z,1.30
2022-11-16T02:32:19.900Z,1.50
2022-11-16T02:34:57.442Z,1.43
2022-11-16T02:37:27.352Z,1.10
2022-11-16T02:39:59.611Z,1.50
2022-11-16T02:42:35.203Z,1.03
2022-11-16T02:45:08.813Z,1.30
2022-11-16T02:47:37.097Z,1.17
2022-11-16T02:50:12.835Z,0.93
2022-11-16T02:52:40.570Z,1.03
2022-11-16T02:55:10.184Z,0.90
2022-11-16T02:57:59.032Z,0.90
2022-11-16T03:01:06.938Z,1.03
2022-11-16T03:03:55.019Z,0.90
2022-11-16T03:06:35.272Z,0.80
2022-11-16T03:09:10.793Z,1.37
2022-11-16T03:11:59.825Z,0.90
2022-11-16T03:14:48.636Z,0.90
2022-11-16T03:17:44.717Z,0.50
2022-11-16T03:20:27.645Z,0.77
2022-11-16T03:23:03.223Z,0.80
2022-11-16T03:25:38.757Z,0.70
2022-11-16T03:28:31.802Z,0.70
2022-11-16T03:31:16.905Z,0.87
2022-11-16T03:33:50.559Z,0.57
2022-11-16T03:36:32.112Z,0.70
2022-11-16T03:39:07.940Z,0.90
2022-11-16T03:41:38.089Z,0.80
2022-11-16T03:44:09.743Z,0.43
2022-11-16T03:46:37.046Z,0.60
2022-11-16T03:49:05.858Z,0.70
2022-11-16T03:51:36.382Z,0.60
2022-11-16T03:54:04.800Z,0.50
2022-11-16T03:56:33.062Z,0.50
2022-11-16T03:59:01.119Z,0.40
2022-11-16T04:01:29.836Z,0.50
2022-11-16T04:03:56.948Z,0.60
2022-11-16T04:06:43.403Z,0.87
2022-11-16T04:09:22.892Z,0.50
2022-11-16T04:12:09.556Z,0.90
2022-11-16T04:14:57.058Z,0.60
2022-11-16T04:17:45.383Z,0.60
2022-11-16T04:20:33.764Z,0.70
2022-11-16T04:23:29.657Z,0.60
2022-11-16T04:25:57.510Z,0.50
2022-11-16T04:28:31.026Z,0.57
2022-11-16T04:31:23.413Z,0.60
2022-11-16T04:34:22.764Z,0.60
2022-11-16T04:37:11.571Z,0.70
2022-11-16T04:39:40.217Z,0.50
2022-11-16T04:42:19.298Z,0.60
2022-11-16T04:45:07.562Z,0.50
2022-11-16T04:47:41.378Z,0.80
2022-11-16T04:50:08.995Z,0.90
2022-11-16T04:52:36.122Z,0.70
2022-11-16T04:55:05.076Z,0.90
2022-11-16T04:57:32.865Z,0.60
2022-11-16T05:00:00.814Z,0.53
2022-11-16T05:02:28.100Z,1.20
2022-11-16T05:04:57.970Z,0.70
2022-11-16T05:07:26.833Z,0.53
2022-11-16T05:10:01.309Z,0.50
2022-11-16T05:12:28.844Z,1.00
2022-11-16T05:14:59.466Z,0.60
2022-11-16T05:17:29.824Z,0.70
2022-11-16T05:20:18.117Z,0.77
2022-11-16T05:22:58.457Z,1.60
2022-11-16T05:25:36.145Z,0.63
2022-11-16T05:28:06.159Z,0.60
2022-11-16T05:30:37.513Z,0.60
2022-11-16T05:33:04.683Z,1.43
2022-11-16T05:35:34.953Z,1.00
2022-11-16T05:38:02.443Z,1.10
2022-11-16T05:40:32.892Z,1.00
2022-11-16T05:43:01.124Z,0.53
2022-11-16T05:45:31.349Z,0.80
2022-11-16T05:48:00.399Z,0.73
2022-11-16T05:50:27.698Z,0.77
2022-11-16T05:53:07.772Z,1.77
2022-11-16T05:55:36.107Z,0.90
2022-11-16T05:58:03.330Z,1.07
2022-11-16T06:00:30.356Z,1.13
2022-11-16T06:02:59.911Z,1.57
2022-11-16T06:05:32.467Z,0.97
2022-11-16T06:08:03.576Z,0.70
2022-11-16T06:10:30.986Z,0.67
2022-11-16T06:12:58.639Z,1.20
2022-11-16T06:15:25.950Z,1.00
2022-11-16T06:17:52.916Z,1.27
2022-11-16T06:20:21.532Z,0.93
2022-11-16T06:22:48.801Z,0.90
2022-11-16T06:25:16.178Z,0.87
2022-11-16T06:27:44.764Z,0.63
2022-11-16T06:30:16.935Z,0.70
2022-11-16T06:32:44.790Z,1.40
2022-11-16T06:35:12.145Z,1.00
2022-11-16T06:37:40.134Z,0.90
2022-11-16T06:40:09.692Z,0.70
2022-11-16T06:42:41.891Z,1.37
2022-11-16T06:45:11.330Z,1.00
2022-11-16T06:47:42.040Z,1.00
2022-11-16T06:50:09.789Z,1.00
2022-11-16T06:52:36.847Z,1.00
2022-11-16T06:55:04.345Z,0.70
2022-11-16T06:57:35.862Z,0.90
2022-11-16T07:00:05.376Z,1.13
2022-11-16T07:02:38.663Z,0.90
2022-11-16T07:05:08.494Z,1.97
2022-11-16T07:07:35.599Z,0.90
2022-11-16T07:10:04.986Z,1.13
2022-11-16T07:12:32.384Z,0.70
2022-11-16T07:15:01.283Z,0.80
2022-11-16T07:17:31.311Z,0.90
2022-11-16T07:19:58.631Z,2.07
2022-11-16T07:22:26.120Z,1.30
2022-11-16T07:24:53.994Z,1.30
2022-11-16T07:27:22.016Z,0.87
2022-11-16T07:29:51.148Z,1.20
2022-11-16T07:32:31.128Z,0.77
2022-11-16T07:35:11.599Z,0.97
2022-11-16T07:37:39.620Z,1.20
2022-11-16T07:40:08.924Z,0.80
2022-11-16T07:42:37.299Z,0.93
2022-11-16T07:45:15.468Z,0.97
2022-11-16T07:47:53.318Z,1.10
2022-11-16T07:50:46.642Z,0.90
2022-11-16T07:53:15.294Z,0.70
2022-11-16T07:55:42.266Z,0.80
2022-11-16T07:58:11.045Z,1.20
2022-11-16T08:00:38.808Z,0.80
2022-11-16T08:03:16.475Z,0.83
2022-11-16T08:05:47.005Z,1.33
2022-11-16T08:08:14.148Z,0.60
2022-11-16T08:10:42.265Z,1.33
2022-11-16T08:13:09.269Z,1.10
2022-11-16T08:15:36.373Z,1.13
2022-11-16T08:18:06.755Z,1.07
2022-11-16T08:20:34.861Z,0.80
2022-11-16T08:23:02.294Z,0.70
2022-11-16T08:25:33.143Z,0.90
2022-11-16T08:28:00.470Z,1.07
2022-11-16T08:30:28.344Z,1.40
2022-11-16T08:32:55.905Z,0.70
2022-11-16T08:35:23.339Z,0.97
2022-11-16T08:37:50.564Z,0.70
2022-11-16T08:40:18.315Z,0.90
2022-11-16T08:42:48.452Z,0.90
2022-11-16T08:45:16.187Z,0.60
2022-11-16T08:47:49.882Z,0.70
2022-11-16T08:50:19.524Z,0.87
2022-11-16T08:52:48.033Z,0.70
2022-11-16T08:55:19.009Z,0.97
2022-11-16T08:57:46.396Z,0.80
2022-11-16T09:00:18.220Z,0.70
2022-11-16T09:02:45.323Z,1.10
2022-11-16T09:05:12.996Z,0.67
2022-11-16T09:07:40.873Z,0.90
2022-11-16T09:10:08.560Z,0.80
2022-11-16T09:12:36.515Z,0.87
2022-11-16T09:15:05.440Z,0.70
2022-11-16T09:17:32.861Z,0.60
2022-11-16T09:19:59.779Z,0.70
2022-11-16T09:22:27.130Z,1.00
2022-11-16T09:24:54.044Z,0.90
2022-11-16T09:30:12.386Z,1.07
2022-11-16T09:32:39.330Z,0.63
2022-11-16T09:35:07.153Z,0.70
2022-11-16T09:37:35.213Z,0.70
2022-11-16T09:40:02.294Z,0.90
2022-11-16T09:42:49.460Z,0.57
2022-11-16T09:45:36.581Z,0.70
2022-11-16T09:48:06.565Z,0.90
2022-11-16T09:51:01.736Z,1.00
2022-11-16T09:53:45.193Z,0.73
2022-11-16T09:56:22.460Z,0.90
2022-11-16T09:59:09.394Z,0.87
2022-11-16T10:02:16.585Z,1.00
2022-11-16T10:05:20.634Z,0.60
2022-11-16T10:08:04.564Z,0.70
2022-11-16T10:10:38.964Z,0.70
2022-11-16T10:14:00.001Z,0.97
2022-11-16T10:16:36.407Z,1.87
2022-11-16T10:19:40.435Z,1.13
2022-11-16T10:22:38.155Z,0.63
2022-11-16T10:25:20.907Z,0.80
2022-11-16T10:28:25.066Z,0.83
2022-11-16T10:31:33.438Z,0.80
2022-11-16T10:34:06.124Z,0.70
2022-11-16T10:36:38.558Z,0.80
2022-11-16T10:39:15.089Z,0.80
2022-11-16T10:41:52.126Z,0.70
2022-11-16T10:44:38.855Z,0.67
2022-11-16T10:47:47.128Z,0.93
2022-11-16T10:50:42.311Z,0.73
2022-11-16T10:53:26.367Z,0.93
2022-11-16T10:56:27.316Z,0.80
2022-11-16T10:59:01.004Z,0.70
2022-11-16T11:01:48.012Z,1.07
2022-11-16T11:04:30.426Z,0.80
2022-11-16T11:07:22.024Z,0.60
2022-11-16T11:09:55.866Z,1.00
2022-11-16T11:12:41.181Z,0.60
2022-11-16T11:15:11.362Z,1.40
2022-11-16T11:17:44.742Z,1.23
2022-11-16T11:20:22.994Z,0.50
2022-11-16T11:22:56.574Z,0.67
2022-11-16T11:25:34.563Z,1.33
2022-11-16T11:28:35.196Z,0.83
2022-11-16T11:31:16.891Z,0.80
2022-11-16T11:33:52.171Z,0.50
2022-11-16T11:36:45.740Z,0.50
2022-11-16T11:39:12.677Z,1.00
2022-11-16T11:41:43.333Z,0.40
2022-11-16T11:44:13.273Z,1.10
2022-11-16T11:47:35.291Z,0.63
2022-11-16T11:49:50.034Z,0.40
2022-11-16T11:52:42.472Z,0.70
2022-11-16T11:55:17.763Z,0.70
2022-11-16T11:57:49.260Z,0.80
2022-11-16T12:00:18.098Z,0.70
2022-11-16T12:03:12.870Z,0.43
2022-11-16T12:05:54.271Z,1.07
2022-11-16T12:08:43.910Z,0.73
2022-11-16T12:11:19.905Z,0.70
2022-11-16T12:14:14.828Z,1.07
2022-11-16T12:17:26.028Z,1.00
2022-11-16T12:20:23.426Z,0.97
2022-11-16T12:23:03.935Z,0.80
2022-11-16T12:26:03.491Z,0.70
2022-11-16T12:29:19.089Z,0.70
2022-11-16T12:32:27.867Z,0.70
2022-11-16T12:35:23.699Z,0.77
2022-11-16T12:38:04.057Z,0.73
2022-11-16T12:41:34.511Z,0.70
2022-11-16T12:44:17.104Z,0.70
2022-11-16T12:47:23.524Z,0.90
2022-11-16T12:50:26.166Z,1.47
2022-11-16T12:53:26.772Z,0.53
2022-11-16T12:56:21.343Z,0.63
2022-11-16T12:59:15.136Z,0.60
2022-11-16T13:02:15.954Z,0.50
2022-11-16T13:08:04.960Z,0.60
2022-11-16T13:10:36.860Z,0.70
2022-11-16T13:13:36.036Z,0.63
2022-11-16T13:16:06.993Z,0.70
2022-11-16T13:18:40.010Z,0.70
2022-11-16T13:21:21.761Z,0.90
2022-11-16T13:24:14.021Z,0.83
2022-11-16T13:27:05.599Z,0.60
2022-11-16T13:29:39.705Z,0.90
2022-11-16T13:32:18.971Z,0.77
2022-11-16T13:34:47.718Z,0.50
2022-11-16T13:37:36.540Z,0.50
2022-11-16T13:40:04.599Z,0.53
2022-11-16T13:42:44.728Z,0.70
2022-11-16T13:45:20.920Z,0.70
2022-11-16T13:47:59.033Z,0.93
2022-11-16T13:50:38.148Z,0.60
2022-11-16T13:56:03.408Z,0.63
2022-11-16T13:58:32.735Z,0.70
2022-11-16T14:01:17.241Z,0.63
2022-11-16T14:03:52.545Z,0.77
2022-11-16T14:06:19.641Z,0.47
2022-11-16T14:08:52.069Z,0.70
2022-11-16T14:11:33.971Z,0.63
2022-11-16T14:14:09.602Z,0.73
2022-11-16T14:16:50.981Z,0.83
2022-11-16T14:19:48.543Z,0.60
2022-11-16T14:22:54.219Z,0.90
2022-11-16T14:25:59.559Z,0.50
2022-11-16T14:28:46.673Z,0.67
2022-11-16T14:31:29.580Z,0.73
2022-11-16T14:34:00.175Z,0.70
2022-11-16T14:36:46.168Z,0.80
2022-11-16T14:39:43.592Z,0.63
2022-11-16T14:42:48.151Z,0.70
2022-11-16T14:45:32.921Z,1.00
2022-11-16T14:48:21.888Z,0.57
2022-11-16T14:51:07.984Z,0.70
2022-11-16T14:53:39.570Z,0.77
2022-11-16T14:56:18.900Z,0.60
2022-11-16T14:58:54.410Z,0.70
2022-11-16T15:01:29.718Z,0.57
2022-11-16T15:04:04.931Z,0.47
2022-11-16T15:06:58.415Z,0.73
2022-11-16T15:09:40.554Z,0.90
2022-11-16T15:12:35.120Z,0.80
2022-11-16T15:15:08.824Z,0.93
2022-11-16T15:17:43.320Z,0.60
2022-11-16T15:20:16.706Z,0.90
2022-11-16T15:22:48.059Z,0.60
2022-11-16T15:25:34.843Z,0.90
2022-11-16T15:28:21.416Z,1.30
2022-11-16T15:30:56.871Z,0.80
2022-11-16T15:33:37.445Z,1.30
2022-11-16T15:36:25.605Z,1.00
2022-11-16T15:38:55.685Z,0.70
2022-11-16T15:41:25.415Z,1.00
2022-11-16T15:44:13.223Z,1.00
2022-11-16T15:46:42.099Z,1.27
2022-11-16T15:49:38.769Z,0.80
2022-11-16T15:52:06.330Z,0.77
2022-11-16T15:54:54.983Z,0.70
2022-11-16T15:57:24.108Z,0.90
2022-11-16T15:59:57.163Z,1.07
2022-11-16T16:02:27.774Z,1.50
2022-11-16T16:04:54.719Z,1.07
2022-11-16T16:07:43.263Z,1.07
2022-11-16T16:10:19.785Z,1.20
2022-11-16T16:12:51.075Z,1.10
2022-11-16T16:15:26.979Z,0.90
2022-11-16T16:17:54.918Z,1.07
2022-11-16T16:20:25.776Z,0.90
2022-11-16T16:22:54.290Z,1.07
2022-11-16T16:25:34.172Z,1.30
2022-11-16T16:28:01.454Z,2.00
2022-11-16T16:30:30.374Z,1.40
2022-11-16T16:32:59.011Z,1.40
2022-11-16T16:35:26.736Z,1.50
2022-11-16T16:38:01.599Z,1.40
2022-11-16T16:40:29.468Z,1.20
2022-11-16T16:42:58.106Z,1.60
2022-11-16T16:45:32.860Z,1.53
2022-11-16T16:48:00.852Z,1.87
2022-11-16T16:50:27.870Z,1.53
2022-11-16T16:52:54.838Z,1.40
2022-11-16T16:55:22.106Z,2.20
2022-11-16T16:57:49.038Z,1.60
2022-11-16T17:00:17.015Z,2.70
2022-11-16T17:02:44.257Z,2.30
2022-11-16T17:05:11.350Z,2.20
2022-11-16T17:07:38.451Z,1.70
2022-11-16T17:10:06.313Z,2.10
2022-11-16T17:12:33.309Z,7.70
2022-11-16T17:15:00.264Z,2.60
2022-11-16T17:17:27.491Z,3.20
2022-11-16T17:19:54.648Z,4.67
2022-11-16T17:22:21.595Z,5.87
2022-11-16T17:24:48.820Z,7.90
2022-11-16T17:27:15.801Z,8.40
2022-11-16T17:29:42.693Z,8.20
2022-11-16T17:32:09.858Z,7.93
2022-11-16T17:34:39.888Z,9.40
2022-11-16T17:37:07.197Z,8.10
2022-11-16T17:39:34.157Z,6.53
2022-11-16T17:42:01.699Z,5.93
2022-11-16T17:44:28.717Z,4.53
2022-11-16T17:46:55.744Z,5.20
2022-11-16T17:49:22.676Z,3.60
2022-11-16T17:51:49.677Z,4.27
2022-11-16T17:54:16.662Z,5.37
2022-11-16T17:56:43.669Z,4.40
2022-11-16T17:59:10.614Z,4.00
2022-11-16T18:01:37.862Z,4.50
2022-11-16T18:04:04.788Z,3.90
2022-11-16T18:09:22.094Z,4.23
2022-11-16T18:11:49.037Z,3.50
2022-11-16T18:14:16.029Z,3.93
2022-11-16T18:16:44.309Z,3.70
2022-11-16T18:19:17.693Z,4.63
2022-11-16T18:21:46.645Z,5.60
2022-11-16T18:24:14.144Z,5.03
2022-11-16T18:26:41.806Z,3.90
2022-11-16T18:29:12.707Z,4.10
2022-11-16T18:31:40.683Z,4.97
2022-11-16T18:34:07.768Z,4.43
2022-11-16T18:36:34.688Z,4.43
2022-11-16T18:39:01.649Z,5.33
2022-11-16T18:41:30.080Z,4.47
2022-11-16T18:43:59.154Z,4.83
2022-11-16T18:46:30.414Z,4.30
2022-11-16T18:48:58.796Z,4.63
2022-11-16T18:51:27.564Z,5.40
2022-11-16T18:53:55.365Z,4.30
2022-11-16T18:56:23.094Z,3.83
2022-11-16T18:58:52.620Z,4.60
2022-11-16T19:01:23.372Z,3.50
2022-11-16T19:03:52.231Z,4.43
2022-11-16T19:06:19.489Z,11.43
2022-11-16T19:08:53.942Z,13.43
2022-11-16T19:11:23.996Z,10.93
2022-11-16T19:14:07.438Z,20.43
2022-11-16T19:16:34.525Z,10.03
2022-11-16T19:19:01.754Z,23.73
2022-11-16T19:21:29.036Z,10.80
2022-11-16T19:23:57.271Z,18.10
2022-11-16T19:26:27.304Z,10.40
2022-11-16T19:28:55.024Z,8.27
2022-11-16T19:31:28.809Z,13.20
2022-11-16T19:34:05.068Z,14.73
2022-11-16T19:36:35.356Z,14.13
2022-11-16T19:39:03.671Z,7.30
2022-11-16T19:41:30.936Z,8.20
2022-11-16T19:44:01.454Z,9.60
2022-11-16T19:46:31.917Z,5.83
2022-11-16T19:48:59.555Z,4.07
2022-11-16T19:51:32.598Z,2.07
2022-11-16T19:54:01.710Z,1.30
2022-11-16T19:56:28.842Z,1.43
2022-11-16T19:58:56.161Z,1.20
2022-11-16T20:01:27.857Z,1.60
2022-11-16T20:03:58.546Z,1.93
2022-11-16T20:06:32.360Z,1.90
2022-11-16T20:09:08.315Z,1.40
2022-11-16T20:11:38.272Z,1.20
2022-11-16T20:14:09.399Z,1.20
2022-11-16T20:16:40.055Z,1.60
2022-11-16T20:19:09.460Z,1.40
2022-11-16T20:21:39.848Z,1.50
2022-11-16T20:24:10.468Z,1.50
2022-11-16T20:26:42.134Z,1.60
2022-11-16T20:29:15.119Z,1.30
2022-11-16T20:31:44.250Z,1.43
2022-11-16T20:34:16.674Z,1.63
2022-11-16T20:36:46.883Z,1.20
2022-11-16T20:39:16.241Z,1.40
2022-11-16T20:41:44.107Z,1.30
2022-11-16T20:44:16.580Z,1.30
2022-11-16T20:46:45.085Z,1.03
2022-11-16T20:49:12.229Z,1.63
2022-11-16T20:51:39.545Z,1.53
2022-11-16T20:54:07.128Z,1.37
2022-11-16T20:56:34.362Z,1.70
2022-11-16T20:59:01.816Z,2.13
2022-11-16T21:01:31.682Z,2.07
2022-11-16T21:04:04.668Z,1.83
2022-11-16T21:06:32.986Z,1.73
2022-11-16T21:09:00.767Z,2.87
2022-11-16T21:11:53.031Z,2.03
2022-11-16T21:14:20.758Z,2.13
2022-11-16T21:16:47.931Z,2.27
2022-11-16T21:19:16.109Z,2.30
2022-11-16T21:21:44.029Z,2.77
2022-11-16T21:24:12.048Z,2.60
2022-11-16T21:26:39.285Z,3.50
2022-11-16T21:29:06.825Z,2.87
2022-11-16T21:31:36.295Z,2.80
2022-11-16T21:34:03.856Z,2.50
2022-11-16T21:36:32.154Z,2.60
2022-11-16T21:38:59.851Z,3.17
2022-11-16T21:41:27.322Z,3.03
2022-11-16T21:43:54.813Z,2.57
2022-11-16T21:46:25.287Z,3.70
2022-11-16T21:48:54.327Z,3.27
2022-11-16T21:51:24.798Z,3.00
2022-11-16T21:53:52.394Z,2.60
2022-11-16T21:56:25.671Z,3.40
2022-11-16T21:58:53.920Z,8.00
2022-11-16T22:01:22.766Z,3.87
2022-11-16T22:04:09.900Z,5.00
2022-11-16T22:06:55.219Z,3.60
2022-11-16T22:09:22.417Z,3.87
2022-11-16T22:11:49.369Z,3.77
2022-11-16T22:14:16.477Z,3.90
2022-11-16T22:16:44.144Z,9.13
2022-11-16T22:19:11.113Z,4.10
2022-11-16T22:21:38.236Z,6.60
2022-11-16T22:24:05.580Z,5.70
2022-11-16T22:26:32.591Z,7.20
2022-11-16T22:28:59.884Z,4.77
2022-11-16T22:31:27.296Z,5.07
2022-11-16T22:33:54.382Z,5.80
2022-11-16T22:36:21.522Z,6.20
2022-11-16T22:38:48.489Z,5.73
2022-11-16T22:41:15.797Z,5.40
2022-11-16T22:43:42.854Z,5.33
2022-11-16T22:46:10.911Z,5.30
2022-11-16T22:48:41.302Z,5.07
2022-11-16T22:51:21.240Z,4.30
2022-11-16T22:53:52.036Z,4.30
2022-11-16T22:56:19.076Z,4.20
2022-11-16T22:58:46.215Z,5.53
2022-11-16T23:01:13.262Z,4.07
2022-11-16T23:03:40.872Z,3.70
2022-11-16T23:06:08.631Z,3.70
2022-11-16T23:08:36.538Z,2.87
2022-11-16T23:11:33.051Z,2.03
2022-11-16T23:14:19.226Z,1.20
2022-11-16T23:16:46.813Z,1.97
2022-11-16T23:19:35.066Z,2.10
2022-11-16T23:22:21.867Z,1.23
2022-11-16T23:25:08.361Z,0.70
2022-11-16T23:27:55.000Z,0.50
2022-11-16T23:30:22.217Z,0.60
2022-11-16T23:32:49.798Z,0.70
2022-11-16T23:35:17.588Z,0.60
2022-11-16T23:37:54.721Z,0.83
2022-11-16T23:40:25.052Z,1.03
2022-11-16T23:43:12.034Z,1.30
2022-11-16T23:45:40.746Z,0.67
2022-11-16T23:48:09.950Z,1.47
2022-11-16T23:50:37.203Z,0.60
2022-11-16T23:53:06.064Z,0.50
2022-11-16T23:55:35.582Z,0.60
2022-11-16T23:58:02.707Z,0.50
